sensor_id;sensor_type;location;lat;lon;timestamp;temperature;humidity
19898;DHT22;10111;50.814;4.572;2023-05-10T00:01:49;14.10;99.90
19898;DHT22;10111;50.814;4.572;2023-05-10T00:04:14;14.00;99.90
19898;DHT22;10111;50.814;4.572;2023-05-10T00:06:40;14.10;99.90
19898;DHT22;10111;50.814;4.572;2023-05-10T00:09:06;14.10;99.90
19898;DHT22;10111;50.814;4.572;2023-05-10T00:11:31;14.10;99.90
19898;DHT22;10111;50.814;4.572;2023-05-10T00:13:57;14.10;99.90
19898;DHT22;10111;50.814;4.572;2023-05-10T00:16:23;14.10;99.90
19898;DHT22;10111;50.814;4.572;2023-05-10T00:18:48;14.10;99.90
19898;DHT22;10111;50.814;4.572;2023-05-10T00:21:14;14.10;99.90
19898;DHT22;10111;50.814;4.572;2023-05-10T00:23:40;14.10;99.90
19898;DHT22;10111;50.814;4.572;2023-05-10T00:26:05;14.10;99.90
19898;DHT22;10111;50.814;4.572;2023-05-10T00:28:31;14.10;99.90
19898;DHT22;10111;50.814;4.572;2023-05-10T00:30:57;14.10;99.90
19898;DHT22;10111;50.814;4.572;2023-05-10T00:33:22;14.00;99.90
19898;DHT22;10111;50.814;4.572;2023-05-10T00:35:48;14.00;99.90
19898;DHT22;10111;50.814;4.572;2023-05-10T00:38:14;14.10;99.90
19898;DHT22;10111;50.814;4.572;2023-05-10T00:40:39;14.10;99.90
19898;DHT22;10111;50.814;4.572;2023-05-10T00:43:05;14.20;99.90
19898;DHT22;10111;50.814;4.572;2023-05-10T00:45:33;14.20;99.90
19898;DHT22;10111;50.814;4.572;2023-05-10T00:48:01;14.20;99.90
19898;DHT22;10111;50.814;4.572;2023-05-10T00:50:28;14.20;99.90
19898;DHT22;10111;50.814;4.572;2023-05-10T00:52:54;14.10;99.90
19898;DHT22;10111;50.814;4.572;2023-05-10T00:55:20;14.10;99.90
19898;DHT22;10111;50.814;4.572;2023-05-10T00:57:47;14.00;99.90
19898;DHT22;10111;50.814;4.572;2023-05-10T01:00:13;14.00;99.90
19898;DHT22;10111;50.814;4.572;2023-05-10T01:02:46;13.90;99.90
19898;DHT22;10111;50.814;4.572;2023-05-10T01:05:12;14.00;99.90
19898;DHT22;10111;50.814;4.572;2023-05-10T01:07:38;14.00;99.90
19898;DHT22;10111;50.814;4.572;2023-05-10T01:10:05;14.00;99.90
19898;DHT22;10111;50.814;4.572;2023-05-10T01:12:32;14.00;99.90
19898;DHT22;10111;50.814;4.572;2023-05-10T01:14:58;14.00;99.90
19898;DHT22;10111;50.814;4.572;2023-05-10T01:17:24;14.10;99.90
19898;DHT22;10111;50.814;4.572;2023-05-10T01:19:50;14.00;99.90
19898;DHT22;10111;50.814;4.572;2023-05-10T01:34:18;14.10;99.90
19898;DHT22;10111;50.814;4.572;2023-05-10T01:36:52;14.10;99.90
19898;DHT22;10111;50.814;4.572;2023-05-10T01:41:53;14.10;99.90
19898;DHT22;10111;50.814;4.572;2023-05-10T01:47:40;14.10;99.90
19898;DHT22;10111;50.814;4.572;2023-05-10T01:50:18;14.10;99.90
19898;DHT22;10111;50.814;4.572;2023-05-10T01:52:49;14.10;99.90
19898;DHT22;10111;50.814;4.572;2023-05-10T01:55:18;14.10;99.90
19898;DHT22;10111;50.814;4.572;2023-05-10T01:57:44;14.20;99.90
19898;DHT22;10111;50.814;4.572;2023-05-10T02:00:12;14.20;99.90
19898;DHT22;10111;50.814;4.572;2023-05-10T02:02:45;14.20;99.90
19898;DHT22;10111;50.814;4.572;2023-05-10T02:05:13;14.20;99.90
19898;DHT22;10111;50.814;4.572;2023-05-10T02:07:40;14.20;99.90
19898;DHT22;10111;50.814;4.572;2023-05-10T02:10:07;14.20;99.90
19898;DHT22;10111;50.814;4.572;2023-05-10T02:12:53;14.20;99.90
19898;DHT22;10111;50.814;4.572;2023-05-10T02:15:22;14.20;99.90
19898;DHT22;10111;50.814;4.572;2023-05-10T02:17:49;14.20;99.90
19898;DHT22;10111;50.814;4.572;2023-05-10T02:20:16;14.20;99.90
19898;DHT22;10111;50.814;4.572;2023-05-10T02:22:43;14.20;99.90
19898;DHT22;10111;50.814;4.572;2023-05-10T02:25:12;14.20;99.90
19898;DHT22;10111;50.814;4.572;2023-05-10T02:27:38;14.20;99.90
19898;DHT22;10111;50.814;4.572;2023-05-10T02:30:07;14.20;99.90
19898;DHT22;10111;50.814;4.572;2023-05-10T02:32:34;14.20;99.90
19898;DHT22;10111;50.814;4.572;2023-05-10T02:35:02;14.20;99.90
19898;DHT22;10111;50.814;4.572;2023-05-10T02:37:28;14.20;99.90
19898;DHT22;10111;50.814;4.572;2023-05-10T02:39:55;14.20;99.90
19898;DHT22;10111;50.814;4.572;2023-05-10T02:42:27;14.20;99.90
19898;DHT22;10111;50.814;4.572;2023-05-10T02:44:56;14.20;99.90
19898;DHT22;10111;50.814;4.572;2023-05-10T02:47:22;14.20;99.90
19898;DHT22;10111;50.814;4.572;2023-05-10T02:49:48;14.10;99.90
19898;DHT22;10111;50.814;4.572;2023-05-10T02:52:18;14.10;99.90
19898;DHT22;10111;50.814;4.572;2023-05-10T02:54:46;14.10;99.90
19898;DHT22;10111;50.814;4.572;2023-05-10T02:57:16;14.10;99.90
19898;DHT22;10111;50.814;4.572;2023-05-10T02:59:44;14.10;99.90
19898;DHT22;10111;50.814;4.572;2023-05-10T03:02:12;14.10;99.90
19898;DHT22;10111;50.814;4.572;2023-05-10T03:04:38;14.10;99.90
19898;DHT22;10111;50.814;4.572;2023-05-10T03:07:04;14.10;99.90
19898;DHT22;10111;50.814;4.572;2023-05-10T03:09:31;14.00;99.90
19898;DHT22;10111;50.814;4.572;2023-05-10T03:15:00;14.00;99.90
19898;DHT22;10111;50.814;4.572;2023-05-10T03:17:39;14.00;99.90
19898;DHT22;10111;50.814;4.572;2023-05-10T03:20:09;14.00;99.90
19898;DHT22;10111;50.814;4.572;2023-05-10T03:22:51;13.90;99.90
19898;DHT22;10111;50.814;4.572;2023-05-10T03:25:19;13.80;99.90
19898;DHT22;10111;50.814;4.572;2023-05-10T03:27:46;13.80;99.90
19898;DHT22;10111;50.814;4.572;2023-05-10T03:30:13;13.80;99.90
19898;DHT22;10111;50.814;4.572;2023-05-10T03:32:39;13.80;99.90
19898;DHT22;10111;50.814;4.572;2023-05-10T03:35:12;13.80;99.90
19898;DHT22;10111;50.814;4.572;2023-05-10T03:37:41;13.80;99.90
19898;DHT22;10111;50.814;4.572;2023-05-10T03:40:07;13.80;99.90
19898;DHT22;10111;50.814;4.572;2023-05-10T03:42:33;13.90;99.90
19898;DHT22;10111;50.814;4.572;2023-05-10T03:44:58;13.80;99.90
19898;DHT22;10111;50.814;4.572;2023-05-10T03:47:24;13.80;99.90
19898;DHT22;10111;50.814;4.572;2023-05-10T03:49:49;13.80;99.90
19898;DHT22;10111;50.814;4.572;2023-05-10T03:52:15;13.80;99.90
19898;DHT22;10111;50.814;4.572;2023-05-10T03:54:41;13.90;99.90
19898;DHT22;10111;50.814;4.572;2023-05-10T03:57:06;13.80;99.90
19898;DHT22;10111;50.814;4.572;2023-05-10T03:59:32;13.80;99.90
19898;DHT22;10111;50.814;4.572;2023-05-10T04:01:58;13.80;99.90
19898;DHT22;10111;50.814;4.572;2023-05-10T04:04:23;13.90;99.90
19898;DHT22;10111;50.814;4.572;2023-05-10T04:06:49;13.90;99.90
19898;DHT22;10111;50.814;4.572;2023-05-10T04:09:15;13.90;99.90
19898;DHT22;10111;50.814;4.572;2023-05-10T04:11:42;13.90;99.90
19898;DHT22;10111;50.814;4.572;2023-05-10T04:14:08;13.80;99.90
19898;DHT22;10111;50.814;4.572;2023-05-10T04:16:34;13.80;99.90
19898;DHT22;10111;50.814;4.572;2023-05-10T04:18:59;13.80;99.90
19898;DHT22;10111;50.814;4.572;2023-05-10T04:21:25;13.70;99.90
19898;DHT22;10111;50.814;4.572;2023-05-10T04:23:51;13.70;99.90
19898;DHT22;10111;50.814;4.572;2023-05-10T04:26:16;13.70;99.90
19898;DHT22;10111;50.814;4.572;2023-05-10T04:28:42;13.70;99.90
19898;DHT22;10111;50.814;4.572;2023-05-10T04:31:09;13.70;99.90
19898;DHT22;10111;50.814;4.572;2023-05-10T04:33:35;13.70;99.90
19898;DHT22;10111;50.814;4.572;2023-05-10T04:36:02;13.70;99.90
19898;DHT22;10111;50.814;4.572;2023-05-10T04:38:28;13.70;99.90
19898;DHT22;10111;50.814;4.572;2023-05-10T04:41:03;13.60;99.90
19898;DHT22;10111;50.814;4.572;2023-05-10T04:43:28;13.60;99.90
19898;DHT22;10111;50.814;4.572;2023-05-10T04:45:56;13.60;99.90
19898;DHT22;10111;50.814;4.572;2023-05-10T04:48:22;13.60;99.90
19898;DHT22;10111;50.814;4.572;2023-05-10T04:50:48;13.60;99.90
19898;DHT22;10111;50.814;4.572;2023-05-10T04:53:14;13.70;99.90
19898;DHT22;10111;50.814;4.572;2023-05-10T04:55:39;13.70;99.90
19898;DHT22;10111;50.814;4.572;2023-05-10T04:58:05;13.70;99.90
19898;DHT22;10111;50.814;4.572;2023-05-10T05:00:30;13.70;99.90
19898;DHT22;10111;50.814;4.572;2023-05-10T05:02:56;13.70;99.90
19898;DHT22;10111;50.814;4.572;2023-05-10T05:05:22;13.70;99.90
19898;DHT22;10111;50.814;4.572;2023-05-10T05:07:47;13.60;99.90
19898;DHT22;10111;50.814;4.572;2023-05-10T05:10:13;13.70;99.90
19898;DHT22;10111;50.814;4.572;2023-05-10T05:12:39;13.80;99.90
19898;DHT22;10111;50.814;4.572;2023-05-10T05:15:05;13.70;99.90
19898;DHT22;10111;50.814;4.572;2023-05-10T05:17:30;13.70;99.90
19898;DHT22;10111;50.814;4.572;2023-05-10T05:19:56;13.80;99.90
19898;DHT22;10111;50.814;4.572;2023-05-10T05:22:22;13.80;99.90
19898;DHT22;10111;50.814;4.572;2023-05-10T05:24:56;13.80;99.90
19898;DHT22;10111;50.814;4.572;2023-05-10T05:27:22;13.80;99.90
19898;DHT22;10111;50.814;4.572;2023-05-10T05:29:50;13.80;99.90
19898;DHT22;10111;50.814;4.572;2023-05-10T05:32:16;13.90;99.90
19898;DHT22;10111;50.814;4.572;2023-05-10T05:34:44;13.90;99.90
19898;DHT22;10111;50.814;4.572;2023-05-10T05:37:13;13.90;99.90
19898;DHT22;10111;50.814;4.572;2023-05-10T05:39:39;14.00;99.90
19898;DHT22;10111;50.814;4.572;2023-05-10T05:42:05;14.00;99.90
19898;DHT22;10111;50.814;4.572;2023-05-10T05:44:31;14.00;99.90
19898;DHT22;10111;50.814;4.572;2023-05-10T05:46:56;14.00;99.90
19898;DHT22;10111;50.814;4.572;2023-05-10T05:49:22;14.20;99.90
19898;DHT22;10111;50.814;4.572;2023-05-10T05:51:48;14.10;99.90
19898;DHT22;10111;50.814;4.572;2023-05-10T05:54:15;14.10;99.90
19898;DHT22;10111;50.814;4.572;2023-05-10T05:56:41;14.00;99.90
19898;DHT22;10111;50.814;4.572;2023-05-10T05:59:07;14.10;99.90
19898;DHT22;10111;50.814;4.572;2023-05-10T06:01:33;14.00;99.90
19898;DHT22;10111;50.814;4.572;2023-05-10T06:03:59;14.00;99.90
19898;DHT22;10111;50.814;4.572;2023-05-10T06:06:24;14.00;99.90
19898;DHT22;10111;50.814;4.572;2023-05-10T06:08:50;13.90;99.90
19898;DHT22;10111;50.814;4.572;2023-05-10T06:11:15;13.90;99.90
19898;DHT22;10111;50.814;4.572;2023-05-10T06:13:41;13.90;99.90
19898;DHT22;10111;50.814;4.572;2023-05-10T06:16:07;13.90;99.90
19898;DHT22;10111;50.814;4.572;2023-05-10T06:18:33;13.90;99.90
19898;DHT22;10111;50.814;4.572;2023-05-10T06:20:59;13.90;99.90
19898;DHT22;10111;50.814;4.572;2023-05-10T06:23:25;13.90;99.90
19898;DHT22;10111;50.814;4.572;2023-05-10T06:25:51;14.00;99.90
19898;DHT22;10111;50.814;4.572;2023-05-10T06:28:17;14.00;99.90
19898;DHT22;10111;50.814;4.572;2023-05-10T06:30:42;14.00;99.90
19898;DHT22;10111;50.814;4.572;2023-05-10T06:33:08;14.00;99.90
19898;DHT22;10111;50.814;4.572;2023-05-10T06:35:34;14.00;99.90
19898;DHT22;10111;50.814;4.572;2023-05-10T06:38:00;14.00;99.90
19898;DHT22;10111;50.814;4.572;2023-05-10T06:40:25;14.00;99.90
19898;DHT22;10111;50.814;4.572;2023-05-10T06:42:51;14.00;99.90
19898;DHT22;10111;50.814;4.572;2023-05-10T06:45:17;14.00;99.90
19898;DHT22;10111;50.814;4.572;2023-05-10T06:47:43;14.00;99.90
19898;DHT22;10111;50.814;4.572;2023-05-10T06:50:09;14.00;99.90
19898;DHT22;10111;50.814;4.572;2023-05-10T06:52:36;13.80;99.90
19898;DHT22;10111;50.814;4.572;2023-05-10T06:55:03;13.80;99.90
19898;DHT22;10111;50.814;4.572;2023-05-10T06:57:28;13.90;99.90
19898;DHT22;10111;50.814;4.572;2023-05-10T06:59:54;13.90;99.90
19898;DHT22;10111;50.814;4.572;2023-05-10T07:02:22;14.00;99.90
19898;DHT22;10111;50.814;4.572;2023-05-10T07:04:48;14.00;99.90
19898;DHT22;10111;50.814;4.572;2023-05-10T07:07:14;14.10;99.90
19898;DHT22;10111;50.814;4.572;2023-05-10T07:09:40;14.10;99.90
19898;DHT22;10111;50.814;4.572;2023-05-10T07:12:06;14.20;99.90
19898;DHT22;10111;50.814;4.572;2023-05-10T07:14:31;14.20;99.90
19898;DHT22;10111;50.814;4.572;2023-05-10T07:16:57;14.20;99.90
19898;DHT22;10111;50.814;4.572;2023-05-10T07:19:23;14.30;99.90
19898;DHT22;10111;50.814;4.572;2023-05-10T07:21:49;14.30;99.90
19898;DHT22;10111;50.814;4.572;2023-05-10T07:24:15;14.40;99.90
19898;DHT22;10111;50.814;4.572;2023-05-10T07:26:41;14.40;99.90
19898;DHT22;10111;50.814;4.572;2023-05-10T07:29:06;14.40;99.90
19898;DHT22;10111;50.814;4.572;2023-05-10T07:31:32;14.30;99.90
19898;DHT22;10111;50.814;4.572;2023-05-10T07:33:58;14.30;99.90
19898;DHT22;10111;50.814;4.572;2023-05-10T07:36:24;14.20;99.90
19898;DHT22;10111;50.814;4.572;2023-05-10T07:38:49;14.20;99.90
19898;DHT22;10111;50.814;4.572;2023-05-10T07:41:15;14.20;99.90
19898;DHT22;10111;50.814;4.572;2023-05-10T07:43:41;14.10;99.90
19898;DHT22;10111;50.814;4.572;2023-05-10T07:46:06;14.10;99.90
19898;DHT22;10111;50.814;4.572;2023-05-10T07:48:33;14.00;99.90
19898;DHT22;10111;50.814;4.572;2023-05-10T07:50:58;14.00;99.90
19898;DHT22;10111;50.814;4.572;2023-05-10T07:53:26;14.00;99.90
19898;DHT22;10111;50.814;4.572;2023-05-10T07:55:58;14.00;99.90
19898;DHT22;10111;50.814;4.572;2023-05-10T07:58:25;14.00;99.90
19898;DHT22;10111;50.814;4.572;2023-05-10T08:00:50;14.10;99.90
19898;DHT22;10111;50.814;4.572;2023-05-10T08:03:16;14.00;99.90
19898;DHT22;10111;50.814;4.572;2023-05-10T08:05:42;14.00;99.90
19898;DHT22;10111;50.814;4.572;2023-05-10T08:08:07;14.00;99.90
19898;DHT22;10111;50.814;4.572;2023-05-10T08:10:33;14.00;99.90
19898;DHT22;10111;50.814;4.572;2023-05-10T08:12:59;14.00;99.90
19898;DHT22;10111;50.814;4.572;2023-05-10T08:15:24;14.00;99.90
19898;DHT22;10111;50.814;4.572;2023-05-10T08:17:52;14.00;99.90
19898;DHT22;10111;50.814;4.572;2023-05-10T08:20:18;14.00;99.90
19898;DHT22;10111;50.814;4.572;2023-05-10T08:22:45;14.00;99.90
19898;DHT22;10111;50.814;4.572;2023-05-10T08:25:11;14.00;99.90
19898;DHT22;10111;50.814;4.572;2023-05-10T08:27:37;14.10;99.90
19898;DHT22;10111;50.814;4.572;2023-05-10T08:30:03;14.20;99.90
19898;DHT22;10111;50.814;4.572;2023-05-10T08:32:28;14.30;99.90
19898;DHT22;10111;50.814;4.572;2023-05-10T08:34:55;14.40;99.90
19898;DHT22;10111;50.814;4.572;2023-05-10T08:37:22;14.50;99.90
19898;DHT22;10111;50.814;4.572;2023-05-10T08:39:48;14.60;99.90
19898;DHT22;10111;50.814;4.572;2023-05-10T08:42:16;14.60;99.90
19898;DHT22;10111;50.814;4.572;2023-05-10T08:44:45;14.60;99.90
19898;DHT22;10111;50.814;4.572;2023-05-10T08:47:16;14.60;99.90
19898;DHT22;10111;50.814;4.572;2023-05-10T08:49:43;14.60;99.90
19898;DHT22;10111;50.814;4.572;2023-05-10T08:52:12;14.70;99.90
19898;DHT22;10111;50.814;4.572;2023-05-10T08:54:38;14.70;99.90
19898;DHT22;10111;50.814;4.572;2023-05-10T08:57:04;14.70;99.90
19898;DHT22;10111;50.814;4.572;2023-05-10T08:59:31;14.70;99.90
19898;DHT22;10111;50.814;4.572;2023-05-10T09:02:00;14.70;99.90
19898;DHT22;10111;50.814;4.572;2023-05-10T09:04:29;14.60;99.90
19898;DHT22;10111;50.814;4.572;2023-05-10T09:06:56;14.60;99.90
19898;DHT22;10111;50.814;4.572;2023-05-10T09:09:24;14.70;99.90
19898;DHT22;10111;50.814;4.572;2023-05-10T09:11:51;14.60;99.90
19898;DHT22;10111;50.814;4.572;2023-05-10T09:14:18;14.60;99.90
19898;DHT22;10111;50.814;4.572;2023-05-10T09:16:45;14.50;99.90
19898;DHT22;10111;50.814;4.572;2023-05-10T09:19:11;14.40;99.90
19898;DHT22;10111;50.814;4.572;2023-05-10T09:21:37;14.40;99.90
19898;DHT22;10111;50.814;4.572;2023-05-10T09:24:06;14.50;99.90
19898;DHT22;10111;50.814;4.572;2023-05-10T09:26:33;14.40;99.90
19898;DHT22;10111;50.814;4.572;2023-05-10T09:29:01;14.40;99.90
19898;DHT22;10111;50.814;4.572;2023-05-10T09:31:48;14.30;99.90
19898;DHT22;10111;50.814;4.572;2023-05-10T09:34:22;14.30;99.90
19898;DHT22;10111;50.814;4.572;2023-05-10T09:37:00;14.30;99.90
19898;DHT22;10111;50.814;4.572;2023-05-10T09:39:37;14.20;99.90
19898;DHT22;10111;50.814;4.572;2023-05-10T09:42:08;14.30;99.90
19898;DHT22;10111;50.814;4.572;2023-05-10T09:44:34;14.30;99.90
19898;DHT22;10111;50.814;4.572;2023-05-10T09:47:01;14.30;99.90
19898;DHT22;10111;50.814;4.572;2023-05-10T09:49:27;14.20;99.90
19898;DHT22;10111;50.814;4.572;2023-05-10T09:52:07;14.30;99.90
19898;DHT22;10111;50.814;4.572;2023-05-10T09:54:34;14.20;99.90
19898;DHT22;10111;50.814;4.572;2023-05-10T09:57:00;14.40;99.90
19898;DHT22;10111;50.814;4.572;2023-05-10T09:59:27;14.40;99.90
19898;DHT22;10111;50.814;4.572;2023-05-10T10:01:56;14.50;99.90
19898;DHT22;10111;50.814;4.572;2023-05-10T10:04:22;14.60;99.90
19898;DHT22;10111;50.814;4.572;2023-05-10T10:06:59;14.70;99.90
19898;DHT22;10111;50.814;4.572;2023-05-10T10:09:25;14.70;99.90
19898;DHT22;10111;50.814;4.572;2023-05-10T10:11:52;14.90;99.90
19898;DHT22;10111;50.814;4.572;2023-05-10T10:14:22;14.90;99.90
19898;DHT22;10111;50.814;4.572;2023-05-10T10:16:49;14.90;99.90
19898;DHT22;10111;50.814;4.572;2023-05-10T10:19:18;14.90;99.90
19898;DHT22;10111;50.814;4.572;2023-05-10T10:21:43;14.90;99.90
19898;DHT22;10111;50.814;4.572;2023-05-10T10:24:09;14.90;99.90
19898;DHT22;10111;50.814;4.572;2023-05-10T10:26:39;14.80;99.90
19898;DHT22;10111;50.814;4.572;2023-05-10T10:29:30;14.90;99.90
19898;DHT22;10111;50.814;4.572;2023-05-10T10:32:12;15.00;99.90
19898;DHT22;10111;50.814;4.572;2023-05-10T10:34:43;15.00;99.90
19898;DHT22;10111;50.814;4.572;2023-05-10T10:37:09;15.00;99.90
19898;DHT22;10111;50.814;4.572;2023-05-10T10:39:35;15.00;99.90
19898;DHT22;10111;50.814;4.572;2023-05-10T10:42:02;15.00;99.90
19898;DHT22;10111;50.814;4.572;2023-05-10T10:52:28;15.20;99.90
19898;DHT22;10111;50.814;4.572;2023-05-10T10:55:06;15.30;99.90
19898;DHT22;10111;50.814;4.572;2023-05-10T11:05:34;15.30;99.90
19898;DHT22;10111;50.814;4.572;2023-05-10T11:08:13;15.30;99.90
19898;DHT22;10111;50.814;4.572;2023-05-10T11:10:40;15.30;99.90
19898;DHT22;10111;50.814;4.572;2023-05-10T11:13:08;15.40;99.90
19898;DHT22;10111;50.814;4.572;2023-05-10T11:15:39;15.50;99.90
19898;DHT22;10111;50.814;4.572;2023-05-10T11:18:18;15.70;99.90
19898;DHT22;10111;50.814;4.572;2023-05-10T11:20:50;15.90;99.90
19898;DHT22;10111;50.814;4.572;2023-05-10T11:23:16;15.90;99.90
19898;DHT22;10111;50.814;4.572;2023-05-10T11:25:44;16.00;99.90
19898;DHT22;10111;50.814;4.572;2023-05-10T11:28:10;16.00;99.90
19898;DHT22;10111;50.814;4.572;2023-05-10T11:30:38;16.00;99.90
19898;DHT22;10111;50.814;4.572;2023-05-10T11:33:05;16.10;99.90
19898;DHT22;10111;50.814;4.572;2023-05-10T11:35:37;16.30;99.90
19898;DHT22;10111;50.814;4.572;2023-05-10T11:38:08;16.50;99.90
19898;DHT22;10111;50.814;4.572;2023-05-10T11:40:35;16.50;99.90
19898;DHT22;10111;50.814;4.572;2023-05-10T11:43:02;16.60;99.90
19898;DHT22;10111;50.814;4.572;2023-05-10T11:45:28;16.70;99.90
19898;DHT22;10111;50.814;4.572;2023-05-10T11:47:56;16.80;99.90
19898;DHT22;10111;50.814;4.572;2023-05-10T11:50:22;16.80;99.90
19898;DHT22;10111;50.814;4.572;2023-05-10T11:52:55;16.80;99.90
19898;DHT22;10111;50.814;4.572;2023-05-10T11:55:22;17.00;99.90
19898;DHT22;10111;50.814;4.572;2023-05-10T11:57:51;17.10;99.90
19898;DHT22;10111;50.814;4.572;2023-05-10T12:00:17;17.20;99.90
19898;DHT22;10111;50.814;4.572;2023-05-10T12:02:43;17.20;99.90
19898;DHT22;10111;50.814;4.572;2023-05-10T12:05:12;17.30;99.90
19898;DHT22;10111;50.814;4.572;2023-05-10T12:07:38;17.40;99.90
19898;DHT22;10111;50.814;4.572;2023-05-10T12:10:08;17.40;99.90
19898;DHT22;10111;50.814;4.572;2023-05-10T12:12:39;17.50;99.90
19898;DHT22;10111;50.814;4.572;2023-05-10T12:15:05;17.70;99.90
19898;DHT22;10111;50.814;4.572;2023-05-10T12:17:37;17.90;99.90
19898;DHT22;10111;50.814;4.572;2023-05-10T12:20:17;18.10;99.90
19898;DHT22;10111;50.814;4.572;2023-05-10T12:22:49;18.40;99.90
19898;DHT22;10111;50.814;4.572;2023-05-10T12:25:15;18.50;99.90
19898;DHT22;10111;50.814;4.572;2023-05-10T12:27:41;18.40;99.90
19898;DHT22;10111;50.814;4.572;2023-05-10T12:30:12;18.30;99.90
19898;DHT22;10111;50.814;4.572;2023-05-10T12:32:43;18.10;99.90
19898;DHT22;10111;50.814;4.572;2023-05-10T12:35:09;18.30;99.90
19898;DHT22;10111;50.814;4.572;2023-05-10T12:37:35;18.50;99.90
19898;DHT22;10111;50.814;4.572;2023-05-10T12:40:09;18.50;99.90
19898;DHT22;10111;50.814;4.572;2023-05-10T12:42:37;18.50;99.90
19898;DHT22;10111;50.814;4.572;2023-05-10T12:45:04;18.50;99.90
19898;DHT22;10111;50.814;4.572;2023-05-10T12:47:34;18.60;99.90
19898;DHT22;10111;50.814;4.572;2023-05-10T12:50:00;18.80;99.90
19898;DHT22;10111;50.814;4.572;2023-05-10T12:52:27;19.00;99.90
19898;DHT22;10111;50.814;4.572;2023-05-10T12:54:53;19.20;99.90
19898;DHT22;10111;50.814;4.572;2023-05-10T12:57:20;19.20;99.90
19898;DHT22;10111;50.814;4.572;2023-05-10T12:59:46;19.30;99.90
19898;DHT22;10111;50.814;4.572;2023-05-10T13:02:11;19.00;99.90
19898;DHT22;10111;50.814;4.572;2023-05-10T13:04:37;18.90;99.90
19898;DHT22;10111;50.814;4.572;2023-05-10T13:07:06;19.00;99.90
19898;DHT22;10111;50.814;4.572;2023-05-10T13:09:32;18.90;99.90
19898;DHT22;10111;50.814;4.572;2023-05-10T13:11:57;18.90;99.90
19898;DHT22;10111;50.814;4.572;2023-05-10T13:14:24;19.00;99.90
19898;DHT22;10111;50.814;4.572;2023-05-10T13:16:49;19.00;99.90
19898;DHT22;10111;50.814;4.572;2023-05-10T13:19:16;18.80;99.90
19898;DHT22;10111;50.814;4.572;2023-05-10T13:21:41;18.60;99.90
19898;DHT22;10111;50.814;4.572;2023-05-10T13:24:07;18.70;99.90
19898;DHT22;10111;50.814;4.572;2023-05-10T13:26:33;18.40;99.90
19898;DHT22;10111;50.814;4.572;2023-05-10T13:28:59;18.40;99.90
19898;DHT22;10111;50.814;4.572;2023-05-10T13:31:25;18.20;99.90
19898;DHT22;10111;50.814;4.572;2023-05-10T13:33:51;18.30;99.90
19898;DHT22;10111;50.814;4.572;2023-05-10T13:36:16;18.30;99.90
19898;DHT22;10111;50.814;4.572;2023-05-10T13:38:42;18.30;99.90
19898;DHT22;10111;50.814;4.572;2023-05-10T13:41:07;18.20;99.90
19898;DHT22;10111;50.814;4.572;2023-05-10T13:43:33;18.20;99.90
19898;DHT22;10111;50.814;4.572;2023-05-10T13:45:59;18.30;99.90
19898;DHT22;10111;50.814;4.572;2023-05-10T13:48:24;18.40;99.90
19898;DHT22;10111;50.814;4.572;2023-05-10T13:50:50;18.70;99.90
19898;DHT22;10111;50.814;4.572;2023-05-10T13:53:16;18.70;99.90
19898;DHT22;10111;50.814;4.572;2023-05-10T13:55:41;18.70;99.90
19898;DHT22;10111;50.814;4.572;2023-05-10T13:58:07;18.60;99.90
19898;DHT22;10111;50.814;4.572;2023-05-10T14:00:33;18.60;99.90
19898;DHT22;10111;50.814;4.572;2023-05-10T14:02:59;18.70;99.90
19898;DHT22;10111;50.814;4.572;2023-05-10T14:05:24;18.70;99.90
19898;DHT22;10111;50.814;4.572;2023-05-10T14:07:50;18.80;99.90
19898;DHT22;10111;50.814;4.572;2023-05-10T14:10:16;18.80;99.90
19898;DHT22;10111;50.814;4.572;2023-05-10T14:12:42;18.80;99.90
19898;DHT22;10111;50.814;4.572;2023-05-10T14:15:08;18.80;99.90
19898;DHT22;10111;50.814;4.572;2023-05-10T14:17:35;19.00;99.90
19898;DHT22;10111;50.814;4.572;2023-05-10T14:20:01;19.20;99.90
19898;DHT22;10111;50.814;4.572;2023-05-10T14:22:27;19.30;99.90
19898;DHT22;10111;50.814;4.572;2023-05-10T14:24:53;19.20;99.90
19898;DHT22;10111;50.814;4.572;2023-05-10T14:27:18;19.10;99.90
19898;DHT22;10111;50.814;4.572;2023-05-10T14:29:44;19.10;99.90
19898;DHT22;10111;50.814;4.572;2023-05-10T14:32:10;19.10;99.90
19898;DHT22;10111;50.814;4.572;2023-05-10T14:34:36;19.10;99.90
19898;DHT22;10111;50.814;4.572;2023-05-10T14:37:02;18.80;99.90
19898;DHT22;10111;50.814;4.572;2023-05-10T14:39:28;18.70;99.90
19898;DHT22;10111;50.814;4.572;2023-05-10T14:41:56;18.70;99.90
19898;DHT22;10111;50.814;4.572;2023-05-10T14:44:22;18.80;99.90
19898;DHT22;10111;50.814;4.572;2023-05-10T14:46:49;18.80;99.90
19898;DHT22;10111;50.814;4.572;2023-05-10T14:49:15;18.90;99.90
19898;DHT22;10111;50.814;4.572;2023-05-10T14:51:41;18.90;99.90
19898;DHT22;10111;50.814;4.572;2023-05-10T14:54:07;18.90;99.90
19898;DHT22;10111;50.814;4.572;2023-05-10T14:56:32;18.80;99.90
19898;DHT22;10111;50.814;4.572;2023-05-10T14:58:58;18.60;99.90
19898;DHT22;10111;50.814;4.572;2023-05-10T15:01:25;18.60;99.90
19898;DHT22;10111;50.814;4.572;2023-05-10T15:03:51;18.50;99.90
19898;DHT22;10111;50.814;4.572;2023-05-10T15:06:17;18.40;99.90
19898;DHT22;10111;50.814;4.572;2023-05-10T15:08:42;18.40;99.90
19898;DHT22;10111;50.814;4.572;2023-05-10T15:11:08;18.30;99.90
19898;DHT22;10111;50.814;4.572;2023-05-10T15:13:34;18.20;99.90
19898;DHT22;10111;50.814;4.572;2023-05-10T15:16:00;18.20;99.90
19898;DHT22;10111;50.814;4.572;2023-05-10T15:18:26;18.00;99.90
19898;DHT22;10111;50.814;4.572;2023-05-10T15:20:52;17.90;99.90
19898;DHT22;10111;50.814;4.572;2023-05-10T15:23:18;17.80;99.90
19898;DHT22;10111;50.814;4.572;2023-05-10T15:25:44;17.70;99.90
19898;DHT22;10111;50.814;4.572;2023-05-10T15:28:09;17.70;99.90
19898;DHT22;10111;50.814;4.572;2023-05-10T15:30:35;17.60;99.90
19898;DHT22;10111;50.814;4.572;2023-05-10T15:33:01;17.40;99.90
19898;DHT22;10111;50.814;4.572;2023-05-10T15:35:27;17.10;99.90
19898;DHT22;10111;50.814;4.572;2023-05-10T15:37:52;16.90;99.90
19898;DHT22;10111;50.814;4.572;2023-05-10T15:40:18;16.80;99.90
19898;DHT22;10111;50.814;4.572;2023-05-10T15:42:44;16.50;99.90
19898;DHT22;10111;50.814;4.572;2023-05-10T15:45:10;16.40;99.90
19898;DHT22;10111;50.814;4.572;2023-05-10T15:47:36;16.20;99.90
19898;DHT22;10111;50.814;4.572;2023-05-10T15:50:05;16.10;99.90
19898;DHT22;10111;50.814;4.572;2023-05-10T15:52:31;16.00;99.90
19898;DHT22;10111;50.814;4.572;2023-05-10T15:54:57;15.90;99.90
19898;DHT22;10111;50.814;4.572;2023-05-10T15:57:22;15.80;99.90
19898;DHT22;10111;50.814;4.572;2023-05-10T15:59:48;15.70;99.90
19898;DHT22;10111;50.814;4.572;2023-05-10T16:02:15;15.70;99.90
19898;DHT22;10111;50.814;4.572;2023-05-10T16:04:42;15.60;99.90
19898;DHT22;10111;50.814;4.572;2023-05-10T16:07:08;15.60;99.90